Página principal
METAR-TAF:

METAR-TAF

Aeroportos :

Hua Hin, Tailândia

latitude: 12-35N, longitude: 099-57E, altura: 5 m

Observação actual do tempo

O boletim foi feito há 41 minutos, às 04:00 UTC
Vento 6 kt de sudeste, variando entre es-sudeste e su-sudoeste
Temperatura 32°C
Humidade 56%
Pressão 1014 hPa
Visibilidade: 7000 m

METAR: VTPH 230400Z 14006KT 110V200 7000 NSC 32/22 Q1014 NOSIG

Hora: 11:41 (04:41 UTC)

Previsão

O boletim foi feito há 5 horas e 41 minutos, às 23:00 UTC
Previsão válida de 23 às 00 UTC a 23 às 24 UTC
Vento 5 kt de su-sudoeste
Visibilidade: 9000 m
Poucas nuvensa uma altura de 3000 ft
Tornando-se
de 23 às 02 UTC a 23 às 04 UTC
Vento 8 kt de sudeste
Tornando-se
de 23 às 14 UTC a 23 às 16 UTC
Vento 5 kt de su-sudoeste

TAF: VTPH 222300Z 2300/2324 21005KT 9000 FEW030 BECMG 2302/2304 14008KT BECMG 2314/2316 21005KT

Observações e previsões do tempo de mais de 4000 aeroportos (mensagens METAR e TAF).

As estações disponíveis são os pontos amarelos e vermelhos sobre o mapa.

Mova o rato sobre o mapa para ver o nome da estação.

Depois clique no ponto para visualizar as observações e previsões meteorológicas.

Para alterar o mapa : clique nos botões verdes com uma cruz preta para aumentar o zoom; no botão verde com uma pitada de zoom; ou nas setas verdes para mapas adjacentes.


METAR-TAF: